sensor_id;sensor_type;location;lat;lon;timestamp;temperature;humidity
66610;DHT22;53468;48.276;14.416;2023-05-07T00:03:40;12.10;99.90
66610;DHT22;53468;48.276;14.416;2023-05-07T00:09:20;12.20;99.90
66610;DHT22;53468;48.276;14.416;2023-05-07T00:15:33;12.10;99.90
66610;DHT22;53468;48.276;14.416;2023-05-07T00:20:53;12.20;99.90
66610;DHT22;53468;48.276;14.416;2023-05-07T00:26:32;12.10;99.90
66610;DHT22;53468;48.276;14.416;2023-05-07T00:31:46;12.10;99.90
66610;DHT22;53468;48.276;14.416;2023-05-07T00:37:18;12.10;99.90
66610;DHT22;53468;48.276;14.416;2023-05-07T00:42:38;12.00;99.90
66610;DHT22;53468;48.276;14.416;2023-05-07T00:48:00;11.90;99.90
66610;DHT22;53468;48.276;14.416;2023-05-07T00:53:51;11.80;99.90
66610;DHT22;53468;48.276;14.416;2023-05-07T00:59:33;11.80;99.90
66610;DHT22;53468;48.276;14.416;2023-05-07T01:04:44;11.80;99.90
66610;DHT22;53468;48.276;14.416;2023-05-07T01:10:38;11.70;99.90
66610;DHT22;53468;48.276;14.416;2023-05-07T01:16:30;11.80;99.90
66610;DHT22;53468;48.276;14.416;2023-05-07T01:22:06;11.70;99.90
66610;DHT22;53468;48.276;14.416;2023-05-07T01:27:28;11.60;99.90
66610;DHT22;53468;48.276;14.416;2023-05-07T01:32:43;11.60;99.90
66610;DHT22;53468;48.276;14.416;2023-05-07T01:38:32;11.60;99.90
66610;DHT22;53468;48.276;14.416;2023-05-07T01:50:33;11.70;99.90
66610;DHT22;53468;48.276;14.416;2023-05-07T01:55:44;11.70;99.90
66610;DHT22;53468;48.276;14.416;2023-05-07T02:01:27;11.70;99.90
66610;DHT22;53468;48.276;14.416;2023-05-07T02:07:26;11.70;99.90
66610;DHT22;53468;48.276;14.416;2023-05-07T02:12:42;11.70;99.90
66610;DHT22;53468;48.276;14.416;2023-05-07T02:18:11;11.70;99.90
66610;DHT22;53468;48.276;14.416;2023-05-07T02:29:20;11.60;99.90
66610;DHT22;53468;48.276;14.416;2023-05-07T02:35:14;11.60;99.90
66610;DHT22;53468;48.276;14.416;2023-05-07T02:41:09;11.70;99.90
66610;DHT22;53468;48.276;14.416;2023-05-07T02:46:39;11.70;99.90
66610;DHT22;53468;48.276;14.416;2023-05-07T02:51:53;11.70;99.90
66610;DHT22;53468;48.276;14.416;2023-05-07T02:57:27;11.70;99.90
66610;DHT22;53468;48.276;14.416;2023-05-07T03:03:10;11.70;99.90
66610;DHT22;53468;48.276;14.416;2023-05-07T03:08:45;11.70;99.90
66610;DHT22;53468;48.276;14.416;2023-05-07T03:14:22;11.70;99.90
66610;DHT22;53468;48.276;14.416;2023-05-07T03:19:58;11.70;99.90
66610;DHT22;53468;48.276;14.416;2023-05-07T03:25:15;11.80;99.90
66610;DHT22;53468;48.276;14.416;2023-05-07T03:30:53;11.80;99.90
66610;DHT22;53468;48.276;14.416;2023-05-07T03:36:05;11.80;99.90
66610;DHT22;53468;48.276;14.416;2023-05-07T03:41:17;11.90;99.90
66610;DHT22;53468;48.276;14.416;2023-05-07T03:46:41;11.90;99.90
66610;DHT22;53468;48.276;14.416;2023-05-07T03:52:12;12.00;99.90
66610;DHT22;53468;48.276;14.416;2023-05-07T03:58:00;12.00;99.90
66610;DHT22;53468;48.276;14.416;2023-05-07T04:03:36;12.10;99.90
66610;DHT22;53468;48.276;14.416;2023-05-07T04:08:50;12.10;99.90
66610;DHT22;53468;48.276;14.416;2023-05-07T04:14:31;12.00;99.90
66610;DHT22;53468;48.276;14.416;2023-05-07T04:19:44;12.10;99.90
66610;DHT22;53468;48.276;14.416;2023-05-07T04:25:20;12.20;99.90
66610;DHT22;53468;48.276;14.416;2023-05-07T04:36:57;12.40;99.90
66610;DHT22;53468;48.276;14.416;2023-05-07T04:42:44;12.50;99.90
66610;DHT22;53468;48.276;14.416;2023-05-07T04:48:05;12.70;99.90
66610;DHT22;53468;48.276;14.416;2023-05-07T05:18:32;13.40;99.90
66610;DHT22;53468;48.276;14.416;2023-05-07T05:24:12;13.50;99.90
66610;DHT22;53468;48.276;14.416;2023-05-07T05:29:34;13.60;99.90
66610;DHT22;53468;48.276;14.416;2023-05-07T05:35:05;13.70;99.90
66610;DHT22;53468;48.276;14.416;2023-05-07T05:40:48;13.80;99.90
66610;DHT22;53468;48.276;14.416;2023-05-07T05:46:12;13.90;99.90
66610;DHT22;53468;48.276;14.416;2023-05-07T05:52:02;13.90;99.90
66610;DHT22;53468;48.276;14.416;2023-05-07T05:57:48;14.00;99.90
66610;DHT22;53468;48.276;14.416;2023-05-07T06:03:31;14.10;99.90
66610;DHT22;53468;48.276;14.416;2023-05-07T06:09:16;14.10;99.90
66610;DHT22;53468;48.276;14.416;2023-05-07T06:14:37;14.20;99.90
66610;DHT22;53468;48.276;14.416;2023-05-07T06:20:31;14.30;99.90
66610;DHT22;53468;48.276;14.416;2023-05-07T06:32:41;14.60;99.90
66610;DHT22;53468;48.276;14.416;2023-05-07T06:38:04;14.70;99.90
66610;DHT22;53468;48.276;14.416;2023-05-07T06:44:00;14.90;99.90
66610;DHT22;53468;48.276;14.416;2023-05-07T06:56:14;15.80;99.90
66610;DHT22;53468;48.276;14.416;2023-05-07T07:02:34;16.90;99.90
66610;DHT22;53468;48.276;14.416;2023-05-07T07:08:24;18.00;99.90
66610;DHT22;53468;48.276;14.416;2023-05-07T07:14:28;18.70;99.90
66610;DHT22;53468;48.276;14.416;2023-05-07T07:20:25;19.60;99.90
66610;DHT22;53468;48.276;14.416;2023-05-07T07:44:28;21.70;99.90
66610;DHT22;53468;48.276;14.416;2023-05-07T07:49:53;22.20;99.90
66610;DHT22;53468;48.276;14.416;2023-05-07T08:12:34;22.90;99.90
66610;DHT22;53468;48.276;14.416;2023-05-07T08:17:54;22.90;99.90
66610;DHT22;53468;48.276;14.416;2023-05-07T08:29:17;23.20;99.70
66610;DHT22;53468;48.276;14.416;2023-05-07T08:35:01;23.40;99.30
66610;DHT22;53468;48.276;14.416;2023-05-07T08:40:25;23.40;99.70
66610;DHT22;53468;48.276;14.416;2023-05-07T09:03:43;23.10;98.60
66610;DHT22;53468;48.276;14.416;2023-05-07T09:09:24;23.20;99.90
66610;DHT22;53468;48.276;14.416;2023-05-07T09:15:21;23.30;99.70
66610;DHT22;53468;48.276;14.416;2023-05-07T09:21:19;23.00;99.70
66610;DHT22;53468;48.276;14.416;2023-05-07T09:26:48;23.30;99.20
66610;DHT22;53468;48.276;14.416;2023-05-07T09:32:29;23.20;99.90
66610;DHT22;53468;48.276;14.416;2023-05-07T09:38:12;23.30;99.90
66610;DHT22;53468;48.276;14.416;2023-05-07T09:43:37;22.90;98.20
66610;DHT22;53468;48.276;14.416;2023-05-07T09:49:25;23.10;99.20
66610;DHT22;53468;48.276;14.416;2023-05-07T09:54:56;23.10;99.90
66610;DHT22;53468;48.276;14.416;2023-05-07T10:00:38;23.00;98.30
66610;DHT22;53468;48.276;14.416;2023-05-07T10:06:15;23.20;99.80
66610;DHT22;53468;48.276;14.416;2023-05-07T10:29:01;23.40;99.30
66610;DHT22;53468;48.276;14.416;2023-05-07T10:34:09;23.30;99.90
66610;DHT22;53468;48.276;14.416;2023-05-07T10:39:13;23.30;99.90
66610;DHT22;53468;48.276;14.416;2023-05-07T10:44:27;23.50;98.50
66610;DHT22;53468;48.276;14.416;2023-05-07T10:49:29;23.50;98.60
66610;DHT22;53468;48.276;14.416;2023-05-07T10:54:32;23.70;99.90
66610;DHT22;53468;48.276;14.416;2023-05-07T10:59:37;23.70;98.50
66610;DHT22;53468;48.276;14.416;2023-05-07T11:04:43;23.70;99.90
66610;DHT22;53468;48.276;14.416;2023-05-07T11:09:59;23.80;99.90
66610;DHT22;53468;48.276;14.416;2023-05-07T11:15:07;23.60;98.50
66610;DHT22;53468;48.276;14.416;2023-05-07T11:20:09;23.60;96.60
66610;DHT22;53468;48.276;14.416;2023-05-07T11:25:17;23.70;98.50
66610;DHT22;53468;48.276;14.416;2023-05-07T11:30:21;23.60;97.50
66610;DHT22;53468;48.276;14.416;2023-05-07T11:35:24;23.80;98.80
66610;DHT22;53468;48.276;14.416;2023-05-07T11:40:27;23.90;98.60
66610;DHT22;53468;48.276;14.416;2023-05-07T11:45:31;23.90;99.70
66610;DHT22;53468;48.276;14.416;2023-05-07T11:50:34;23.90;95.50
66610;DHT22;53468;48.276;14.416;2023-05-07T11:55:37;23.90;98.90
66610;DHT22;53468;48.276;14.416;2023-05-07T12:00:48;24.50;99.20
66610;DHT22;53468;48.276;14.416;2023-05-07T12:05:50;24.70;95.80
66610;DHT22;53468;48.276;14.416;2023-05-07T12:10:55;24.80;98.40
66610;DHT22;53468;48.276;14.416;2023-05-07T12:16:00;24.90;98.60
66610;DHT22;53468;48.276;14.416;2023-05-07T12:21:05;24.90;98.20
66610;DHT22;53468;48.276;14.416;2023-05-07T12:26:08;24.50;97.80
66610;DHT22;53468;48.276;14.416;2023-05-07T12:31:14;24.00;96.60
66610;DHT22;53468;48.276;14.416;2023-05-07T12:36:18;23.90;97.50
66610;DHT22;53468;48.276;14.416;2023-05-07T12:41:22;23.80;96.50
66610;DHT22;53468;48.276;14.416;2023-05-07T12:46:29;24.00;98.50
66610;DHT22;53468;48.276;14.416;2023-05-07T12:51:35;24.20;99.10
66610;DHT22;53468;48.276;14.416;2023-05-07T12:56:39;24.30;97.50
66610;DHT22;53468;48.276;14.416;2023-05-07T13:01:44;24.50;98.10
66610;DHT22;53468;48.276;14.416;2023-05-07T13:06:47;24.50;97.00
66610;DHT22;53468;48.276;14.416;2023-05-07T13:11:49;24.40;97.70
66610;DHT22;53468;48.276;14.416;2023-05-07T13:16:52;24.60;98.80
66610;DHT22;53468;48.276;14.416;2023-05-07T13:21:54;24.60;95.60
66610;DHT22;53468;48.276;14.416;2023-05-07T13:26:56;24.60;94.30
66610;DHT22;53468;48.276;14.416;2023-05-07T13:32:00;24.90;96.20
66610;DHT22;53468;48.276;14.416;2023-05-07T13:37:02;25.00;94.30
66610;DHT22;53468;48.276;14.416;2023-05-07T13:42:04;24.90;93.30
66610;DHT22;53468;48.276;14.416;2023-05-07T13:47:07;24.50;94.80
66610;DHT22;53468;48.276;14.416;2023-05-07T13:52:10;24.40;93.70
66610;DHT22;53468;48.276;14.416;2023-05-07T13:57:12;24.10;95.30
66610;DHT22;53468;48.276;14.416;2023-05-07T14:02:16;23.90;96.10
66610;DHT22;53468;48.276;14.416;2023-05-07T14:07:18;23.70;95.10
66610;DHT22;53468;48.276;14.416;2023-05-07T14:12:20;23.40;96.60
66610;DHT22;53468;48.276;14.416;2023-05-07T14:17:24;23.40;95.50
66610;DHT22;53468;48.276;14.416;2023-05-07T14:22:27;23.30;97.90
66610;DHT22;53468;48.276;14.416;2023-05-07T14:27:29;23.30;96.60
66610;DHT22;53468;48.276;14.416;2023-05-07T14:32:34;23.50;96.40
66610;DHT22;53468;48.276;14.416;2023-05-07T14:37:36;23.50;98.50
66610;DHT22;53468;48.276;14.416;2023-05-07T14:42:38;23.30;98.40
66610;DHT22;53468;48.276;14.416;2023-05-07T14:47:42;23.20;98.60
66610;DHT22;53468;48.276;14.416;2023-05-07T14:52:44;23.40;98.20
66610;DHT22;53468;48.276;14.416;2023-05-07T14:57:46;23.40;96.60
66610;DHT22;53468;48.276;14.416;2023-05-07T15:03:14;23.50;96.50
66610;DHT22;53468;48.276;14.416;2023-05-07T15:08:19;23.50;96.70
66610;DHT22;53468;48.276;14.416;2023-05-07T15:13:24;23.10;97.30
66610;DHT22;53468;48.276;14.416;2023-05-07T15:19:04;22.70;97.40
66610;DHT22;53468;48.276;14.416;2023-05-07T15:24:11;22.40;97.80
66610;DHT22;53468;48.276;14.416;2023-05-07T15:29:33;22.10;99.20
66610;DHT22;53468;48.276;14.416;2023-05-07T15:58:39;21.30;99.00
66610;DHT22;53468;48.276;14.416;2023-05-07T16:04:24;21.30;99.90
66610;DHT22;53468;48.276;14.416;2023-05-07T16:10:17;21.30;99.90
66610;DHT22;53468;48.276;14.416;2023-05-07T16:28:11;20.70;99.90
66610;DHT22;53468;48.276;14.416;2023-05-07T16:34:09;20.50;99.90
66610;DHT22;53468;48.276;14.416;2023-05-07T16:40:04;20.30;99.90
66610;DHT22;53468;48.276;14.416;2023-05-07T17:04:03;19.80;99.90
66610;DHT22;53468;48.276;14.416;2023-05-07T17:10:01;19.60;99.90
66610;DHT22;53468;48.276;14.416;2023-05-07T17:27:31;19.10;99.90
66610;DHT22;53468;48.276;14.416;2023-05-07T17:33:31;18.90;99.90
66610;DHT22;53468;48.276;14.416;2023-05-07T17:39:08;18.60;99.90
66610;DHT22;53468;48.276;14.416;2023-05-07T17:51:00;18.40;99.90
66610;DHT22;53468;48.276;14.416;2023-05-07T17:56:08;18.30;99.90
66610;DHT22;53468;48.276;14.416;2023-05-07T18:01:16;18.10;99.90
66610;DHT22;53468;48.276;14.416;2023-05-07T18:06:47;18.00;99.90
66610;DHT22;53468;48.276;14.416;2023-05-07T18:11:54;17.90;99.90
66610;DHT22;53468;48.276;14.416;2023-05-07T18:17:46;17.80;99.90
66610;DHT22;53468;48.276;14.416;2023-05-07T18:23:06;17.60;99.90
66610;DHT22;53468;48.276;14.416;2023-05-07T18:28:20;17.50;99.90
66610;DHT22;53468;48.276;14.416;2023-05-07T18:34:07;17.40;99.90
